Ruston, LA (71270)

1:19 PM CST on February 28, 2015 (GMT -0600)
Ruston Regional | Change Station
CLOSE
Current Station
Airport
Location: Ruston,
Elevation: 312 ft
Nearby Weather Stations

Elev 312 ft 32.51 °N, 92.59 °W | Updated 24 minutes ago

Overcast
Overcast
47 °F
Feels Like 47 °F
N
7
Wind Variable Wind from ENE

Today
High -- | Low -- °F
--% Chance of Precip.
Yesterday
High -- | Low -- °F
Precip. -- in
6:39 AM 6:07 PM
Waxing Gibbous, 79% visible
Pressure 30.43 in
Visibility 10.0 miles
Clouds Overcast 9000 ft
Dew Point 29 °F
Humidity 50%
Rainfall 0.02 in
Snow Depth Not available.
UV 2 out of 12
Pollen 6.20 out of 12
Air Quality Not available.
Flu Activity Not available.
METAR KRSN 281855Z AUTO 07006KT 10SM OVC090 08/M02 A3043 RMK AO2 T00831016

More Conditions Fewer Conditions

Pressure 30.43 in
Visibility 10.0 miles
Clouds Overcast 9000 ft
Dew Point 29 °F
Humidity 50%
Rainfall 0.02 in
Snow Depth Not available.
UV 2 out of 12
Pollen 6.20 out of 12
Air Quality Not available.
Flu Activity Not available.
METAR KRSN 281855Z AUTO 07006KT 10SM OVC090 08/M02 A3043 RMK AO2 T00831016

More Conditions Fewer Conditions

10-Day Weather Forecast

Almanac

Astronomy

Feb. 28, 2015 Rise Set
Actual Time
Civil Twilight
Nautical Twilight
Astronomical Twilight
Moon
Length of Visible Light
Length of Day
Tomorrow will be .
, % of the Moon is Illuminated

Today's Extremes

State Highs State Lows

Community

WunderPhotos

Upload Photos

1,801,120 photos uploaded!

WunderBlogs® & News

Nearby

Air Quality

  Air Quality AQ Index Pollutant
Not available.

Snow Depth

Station Depth Elevation

Earthquake Activity

City Distance Mag. Time & Date
Minimum magnitude displayed is 2.5.

Coastal Water Temperatures

Place Temperature

Nearby Weather Stations